createdAt,value
2022-12-06T00:01:28.915Z,100292.63
2022-12-06T00:03:58.687Z,100292.63
2022-12-06T00:06:28.599Z,100291.03
2022-12-06T00:08:56.502Z,100290.25
2022-12-06T00:11:26.044Z,100281.22
2022-12-06T00:13:55.715Z,100282.19
2022-12-06T00:16:24.396Z,100274.75
2022-12-06T00:18:52.010Z,100278.88
2022-12-06T00:21:21.882Z,100279.03
2022-12-06T00:23:52.087Z,100280.03
2022-12-06T00:26:20.752Z,100274.81
2022-12-06T00:28:48.982Z,100265.44
2022-12-06T00:31:20.824Z,100274.13
2022-12-06T00:33:49.188Z,100273.16
2022-12-06T00:36:21.894Z,100273.34
2022-12-06T00:38:50.513Z,100273.34
2022-12-06T00:41:19.733Z,100273.53
2022-12-06T00:43:48.051Z,100270.19
2022-12-06T00:46:17.490Z,100272.91
2022-12-06T00:48:47.294Z,100269.41
2022-12-06T00:51:18.877Z,100273.38
2022-12-06T00:53:47.332Z,100276.78
2022-12-06T00:56:15.384Z,100265.81
2022-12-06T00:58:43.209Z,100270.09
2022-12-06T01:01:11.784Z,100259.16
2022-12-06T01:03:39.879Z,100260.91
2022-12-06T01:06:10.733Z,100256.84
2022-12-06T01:08:40.163Z,100262.75
2022-12-06T01:11:08.686Z,100264.41
2022-12-06T01:13:36.622Z,100261.88
2022-12-06T01:16:08.325Z,100266.00
2022-12-06T01:18:36.267Z,100258.53
2022-12-06T01:21:05.402Z,100255.09
2022-12-06T01:23:34.426Z,100266.09
2022-12-06T01:26:02.119Z,100268.72
2022-12-06T01:28:29.694Z,100257.56
2022-12-06T01:30:57.580Z,100256.78
2022-12-06T01:33:25.408Z,100257.75
2022-12-06T01:35:53.320Z,100257.03
2022-12-06T01:38:20.893Z,100261.25
2022-12-06T01:40:49.863Z,100254.56
2022-12-06T01:43:32.044Z,100258.88
2022-12-06T01:46:03.975Z,100267.41
2022-12-06T01:48:31.765Z,100258.09
2022-12-06T01:51:00.583Z,100258.00
2022-12-06T01:53:28.872Z,100253.03
2022-12-06T01:55:57.881Z,100251.44
2022-12-06T01:58:30.452Z,100256.53
2022-12-06T02:00:58.022Z,100260.81
2022-12-06T02:03:29.712Z,100256.72
2022-12-06T02:05:58.271Z,100253.38
2022-12-06T02:08:26.692Z,100259.53
2022-12-06T02:10:54.937Z,100256.00
2022-12-06T02:13:25.196Z,100250.22
2022-12-06T02:16:03.639Z,100246.69
2022-12-06T02:18:36.262Z,100241.78
2022-12-06T02:21:13.743Z,100236.69
2022-12-06T02:23:56.706Z,100240.03
2022-12-06T02:26:31.295Z,100235.88
2022-12-06T02:29:28.807Z,100235.97
2022-12-06T02:32:01.484Z,100232.66
2022-12-06T02:34:40.191Z,100240.38
2022-12-06T02:37:11.651Z,100235.69
2022-12-06T02:39:46.037Z,100234.94
2022-12-06T02:42:19.405Z,100233.34
2022-12-06T02:44:49.050Z,100238.63
2022-12-06T02:47:21.233Z,100237.75
2022-12-06T02:49:50.530Z,100240.38
2022-12-06T02:52:20.893Z,100231.94
2022-12-06T02:54:50.212Z,100226.13
2022-12-06T02:57:20.309Z,100222.81
2022-12-06T02:59:53.192Z,100220.25
2022-12-06T03:02:23.819Z,100228.94
2022-12-06T03:05:07.186Z,100222.28
2022-12-06T03:07:42.491Z,100222.28
2022-12-06T03:10:31.186Z,100217.19
2022-12-06T03:13:06.513Z,100222.28
2022-12-06T03:15:42.425Z,100217.97
2022-12-06T03:18:19.368Z,100214.63
2022-12-06T03:20:50.645Z,100211.97
2022-12-06T03:23:24.031Z,100212.09
2022-12-06T03:25:53.231Z,100203.84
2022-12-06T03:28:22.677Z,100210.50
2022-12-06T03:30:53.688Z,100206.00
2022-12-06T03:33:26.509Z,100205.25
2022-12-06T03:35:56.119Z,100212.09
2022-12-06T03:38:30.205Z,100202.06
2022-12-06T03:41:03.837Z,100206.19
2022-12-06T03:43:31.622Z,100201.09
2022-12-06T03:46:05.768Z,100200.31
2022-12-06T03:48:38.998Z,100201.91
2022-12-06T03:51:09.920Z,100206.38
2022-12-06T03:53:46.713Z,100204.78
2022-12-06T03:56:14.312Z,100202.78
2022-12-06T03:58:42.059Z,100209.28
2022-12-06T04:01:09.761Z,100196.81
2022-12-06T04:03:38.764Z,100201.38
2022-12-06T04:06:07.962Z,100199.44
2022-12-06T04:08:35.859Z,100195.22
2022-12-06T04:11:03.474Z,100195.22
2022-12-06T04:13:31.199Z,100193.47
2022-12-06T04:16:01.427Z,100185.03
2022-12-06T04:18:29.519Z,100185.91
2022-12-06T04:21:18.808Z,100190.31
2022-12-06T04:23:48.618Z,100181.88
2022-12-06T04:26:19.041Z,100176.03
2022-12-06T04:29:04.393Z,100176.94
2022-12-06T04:31:49.716Z,100177.09
2022-12-06T04:34:35.659Z,100175.53
2022-12-06T04:37:22.381Z,100180.63
2022-12-06T04:39:50.323Z,100178.84
2022-12-06T04:42:35.951Z,100170.44
2022-12-06T04:45:04.244Z,100172.88
2022-12-06T04:47:38.103Z,100170.44
2022-12-06T04:50:06.644Z,100167.97
2022-12-06T04:52:36.365Z,100160.41
2022-12-06T04:55:04.850Z,100163.13
2022-12-06T04:57:32.496Z,100161.34
2022-12-06T05:00:00.360Z,100160.59
2022-12-06T05:02:28.247Z,100160.59
2022-12-06T05:04:55.812Z,100152.94
2022-12-06T05:07:23.383Z,100159.06
2022-12-06T05:09:52.268Z,100158.34
2022-12-06T05:12:19.797Z,100156.06
2022-12-06T05:14:47.346Z,100168.06
2022-12-06T05:17:14.873Z,100163.06
2022-12-06T05:19:42.427Z,100161.53
2022-12-06T05:22:09.994Z,100167.75
2022-12-06T05:24:37.544Z,100163.66
2022-12-06T05:27:06.481Z,100155.59
2022-12-06T05:29:34.025Z,100159.97
2022-12-06T05:32:02.028Z,100156.72
2022-12-06T05:34:29.636Z,100157.03
2022-12-06T05:36:57.269Z,100159.97
2022-12-06T05:39:25.036Z,100153.44
2022-12-06T05:41:52.522Z,100155.03
2022-12-06T05:44:21.415Z,100153.28
2022-12-06T05:46:48.952Z,100153.38
2022-12-06T05:49:16.556Z,100149.72
2022-12-06T05:51:44.249Z,100156.88
2022-12-06T05:54:11.789Z,100163.00
2022-12-06T05:56:39.747Z,100159.03
2022-12-06T05:59:07.342Z,100159.91
2022-12-06T06:01:36.232Z,100161.66
2022-12-06T06:04:03.904Z,100160.13
2022-12-06T06:06:31.887Z,100156.78
2022-12-06T06:08:59.457Z,100155.19
2022-12-06T06:11:27.053Z,100156.16
2022-12-06T06:13:54.675Z,100161.88
2022-12-06T06:16:22.372Z,100162.03
2022-12-06T06:18:51.378Z,100158.69
2022-12-06T06:21:18.987Z,100168.00
2022-12-06T06:23:46.500Z,100167.13
2022-12-06T06:26:14.022Z,100166.34
2022-12-06T06:28:41.662Z,100165.53
2022-12-06T06:31:09.495Z,100167.22
2022-12-06T06:33:37.086Z,100162.31
2022-12-06T06:36:06.618Z,100171.66
2022-12-06T06:38:34.278Z,100158.91
2022-12-06T06:41:02.479Z,100159.66
2022-12-06T06:43:30.296Z,100157.91
2022-12-06T06:46:00.074Z,100167.22
2022-12-06T06:48:29.441Z,100161.38
2022-12-06T06:50:58.009Z,100176.56
2022-12-06T06:53:27.384Z,100174.78
2022-12-06T06:55:55.039Z,100178.59
2022-12-06T06:58:22.585Z,100178.50
2022-12-06T07:00:53.647Z,100174.59
2022-12-06T07:03:21.269Z,100181.53
2022-12-06T07:05:52.665Z,100184.19
2022-12-06T07:08:20.414Z,100184.28
2022-12-06T07:10:49.588Z,100181.28
2022-12-06T07:13:17.348Z,100175.72
2022-12-06T07:15:44.957Z,100184.00
2022-12-06T07:18:12.558Z,100185.66
2022-12-06T07:20:40.162Z,100180.31
2022-12-06T07:23:07.723Z,100181.75
2022-12-06T07:25:35.366Z,100185.44
2022-12-06T07:28:04.742Z,100188.91
2022-12-06T07:30:32.414Z,100183.09
2022-12-06T07:33:00.171Z,100188.28
2022-12-06T07:35:48.510Z,100182.16
2022-12-06T07:38:15.263Z,100180.16
2022-12-06T07:43:49.831Z,100185.25
2022-12-06T07:46:17.544Z,100186.41
2022-12-06T07:48:47.388Z,100180.19
2022-12-06T07:51:15.941Z,100183.19
2022-12-06T07:53:43.789Z,100183.34
2022-12-06T07:56:11.687Z,100188.34
2022-12-06T07:58:40.514Z,100189.44
2022-12-06T08:01:08.158Z,100183.81
2022-12-06T08:03:35.754Z,100179.28
2022-12-06T08:06:03.315Z,100176.63
2022-12-06T08:08:31.587Z,100181.59
2022-12-06T08:10:59.906Z,100179.16
2022-12-06T08:13:27.493Z,100174.97
2022-12-06T08:15:57.104Z,100178.09
2022-12-06T08:18:25.515Z,100176.34
2022-12-06T08:20:53.346Z,100170.44
2022-12-06T08:23:21.133Z,100175.56
2022-12-06T08:25:56.647Z,100166.97
2022-12-06T08:28:24.187Z,100171.09
2022-12-06T08:30:51.846Z,100168.72
2022-12-06T08:33:21.811Z,100175.25
2022-12-06T08:35:49.543Z,100180.34
2022-12-06T08:38:17.696Z,100183.78
2022-12-06T08:40:46.144Z,100188.94
2022-12-06T08:43:13.731Z,100182.25
2022-12-06T08:45:41.342Z,100187.34
2022-12-06T08:48:08.867Z,100189.97
2022-12-06T08:50:39.713Z,100190.94
2022-12-06T08:53:07.284Z,100189.16
2022-12-06T08:55:34.827Z,100186.34
2022-12-06T08:58:02.493Z,100194.81
2022-12-06T09:00:30.065Z,100191.75
2022-12-06T09:02:57.587Z,100194.44
2022-12-06T09:05:25.147Z,100200.94
2022-12-06T09:07:54.090Z,100198.31
2022-12-06T09:10:21.696Z,100195.75
2022-12-06T09:12:49.407Z,100193.56
2022-12-06T09:15:17.031Z,100198.47
2022-12-06T09:17:44.608Z,100197.47
2022-12-06T09:20:17.888Z,100201.06
2022-12-06T09:22:45.341Z,100204.50
2022-12-06T09:25:14.215Z,100204.41
2022-12-06T09:27:41.815Z,100211.81
2022-12-06T09:30:10.817Z,100210.78
2022-12-06T09:32:38.420Z,100206.78
2022-12-06T09:35:10.900Z,100217.66
2022-12-06T09:37:41.519Z,100205.84
2022-12-06T09:40:17.860Z,100216.38
2022-12-06T09:43:07.169Z,100213.75
2022-12-06T09:46:12.305Z,100210.41
2022-12-06T09:48:57.193Z,100214.06
2022-12-06T09:51:40.902Z,100214.94
2022-12-06T09:54:22.415Z,100214.63
2022-12-06T09:56:58.077Z,100217.50
2022-12-06T09:59:33.688Z,100207.53
2022-12-06T10:02:21.032Z,100211.25
2022-12-06T10:05:16.349Z,100209.19
2022-12-06T10:07:55.016Z,100211.25
2022-12-06T10:10:32.718Z,100200.75
2022-12-06T10:13:08.086Z,100200.44
2022-12-06T10:15:47.781Z,100205.84
2022-12-06T10:18:46.035Z,100199.31
2022-12-06T10:21:19.761Z,100198.28
2022-12-06T10:24:02.171Z,100195.81
2022-12-06T10:26:35.560Z,100183.06
2022-12-06T10:29:23.218Z,100193.16
2022-12-06T10:31:59.761Z,100179.09
2022-12-06T10:34:49.048Z,100182.63
2022-12-06T10:37:30.045Z,100178.75
2022-12-06T10:40:04.136Z,100184.63
2022-12-06T10:42:37.434Z,100177.94
2022-12-06T10:45:31.342Z,100182.59
2022-12-06T10:48:01.774Z,100177.50
2022-12-06T10:50:31.663Z,100179.84
2022-12-06T10:53:04.807Z,100179.97
2022-12-06T10:55:37.168Z,100173.31
2022-12-06T10:58:14.784Z,100177.50
2022-12-06T11:00:51.557Z,100179.56
2022-12-06T11:03:25.381Z,100183.56
2022-12-06T11:05:57.178Z,100183.97
2022-12-06T11:08:29.193Z,100185.09
2022-12-06T11:10:59.183Z,100179.34
2022-12-06T11:13:36.114Z,100183.34
2022-12-06T11:16:11.828Z,100183.56
2022-12-06T11:18:40.899Z,100186.59
2022-12-06T11:21:20.598Z,100177.50
2022-12-06T11:23:54.410Z,100181.91
2022-12-06T11:26:31.603Z,100186.19
2022-12-06T11:29:05.660Z,100184.75
2022-12-06T11:31:38.979Z,100184.63
2022-12-06T11:34:16.050Z,100185.38
2022-12-06T11:36:44.730Z,100187.97
2022-12-06T11:39:14.478Z,100181.44
2022-12-06T11:41:44.175Z,100178.16
2022-12-06T11:44:18.422Z,100179.03
2022-12-06T11:46:55.573Z,100181.44
2022-12-06T11:49:29.537Z,100183.34
2022-12-06T11:52:00.594Z,100178.75
2022-12-06T11:54:32.706Z,100176.31
2022-12-06T11:57:11.862Z,100172.84
2022-12-06T11:59:39.431Z,100180.72
2022-12-06T12:02:31.273Z,100177.78
2022-12-06T12:05:10.448Z,100179.22
2022-12-06T12:07:40.409Z,100178.56
2022-12-06T12:10:35.190Z,100177.47
2022-12-06T12:13:39.502Z,100172.75
2022-12-06T12:16:14.616Z,100170.16
2022-12-06T12:18:51.985Z,100169.50
2022-12-06T12:21:30.858Z,100167.09
2022-12-06T12:23:58.475Z,100169.19
2022-12-06T12:26:37.284Z,100163.56
2022-12-06T12:29:14.512Z,100166.75
2022-12-06T12:31:48.478Z,100174.03
2022-12-06T12:34:20.729Z,100169.81
2022-12-06T12:36:50.395Z,100168.91
2022-12-06T12:39:26.136Z,100163.97
2022-12-06T12:41:53.771Z,100164.16
2022-12-06T12:44:41.103Z,100169.09
2022-12-06T12:47:18.105Z,100159.03
2022-12-06T12:50:01.438Z,100162.91
2022-12-06T12:52:31.069Z,100162.59
2022-12-06T12:55:03.448Z,100165.16
2022-12-06T12:57:31.326Z,100174.03
2022-12-06T12:59:59.072Z,100160.03
2022-12-06T13:02:29.407Z,100164.25
2022-12-06T13:05:31.242Z,100165.31
2022-12-06T13:07:54.195Z,100156.97
2022-12-06T13:10:25.339Z,100157.25
2022-12-06T13:12:56.379Z,100161.50
2022-12-06T13:15:29.947Z,100162.59
2022-12-06T13:18:00.855Z,100152.66
2022-12-06T13:20:32.898Z,100153.03
2022-12-06T13:23:05.058Z,100154.34
2022-12-06T13:25:32.990Z,100152.84
2022-12-06T13:28:05.546Z,100149.69
2022-12-06T13:30:36.515Z,100155.03
2022-12-06T13:33:07.980Z,100150.41
2022-12-06T13:35:41.288Z,100153.94
2022-12-06T13:38:26.628Z,100152.97
2022-12-06T13:40:55.281Z,100159.38
2022-12-06T13:43:59.014Z,100155.28
2022-12-06T13:46:31.645Z,100157.84
2022-12-06T13:49:02.085Z,100154.56
2022-12-06T13:51:48.506Z,100159.47
2022-12-06T13:54:32.662Z,100155.38
2022-12-06T13:57:03.203Z,100153.47
2022-12-06T13:59:37.870Z,100161.25
2022-12-06T14:02:44.180Z,100165.94
2022-12-06T14:08:18.004Z,100151.72
2022-12-06T14:10:46.431Z,100149.66
2022-12-06T14:13:18.920Z,100144.72
2022-12-06T14:15:49.151Z,100143.09
2022-12-06T14:18:28.625Z,100143.56
2022-12-06T14:20:58.125Z,100142.09
2022-12-06T14:23:32.570Z,100142.28
2022-12-06T14:26:21.311Z,100139.03
2022-12-06T14:28:50.308Z,100140.00
2022-12-06T14:31:22.608Z,100137.44
2022-12-06T14:33:50.728Z,100146.84
2022-12-06T14:36:22.025Z,100143.84
2022-12-06T14:38:58.198Z,100138.63
2022-12-06T14:41:52.266Z,100142.09
2022-12-06T14:44:21.170Z,100142.75
2022-12-06T14:46:50.377Z,100142.75
2022-12-06T14:49:38.315Z,100142.84
2022-12-06T14:52:26.416Z,100145.00
2022-12-06T14:55:16.892Z,100137.41
2022-12-06T14:57:47.349Z,100141.38
2022-12-06T15:00:25.800Z,100137.28
2022-12-06T15:03:03.714Z,100133.00
2022-12-06T15:05:36.622Z,100136.13
2022-12-06T15:08:33.366Z,100129.41
2022-12-06T15:11:04.508Z,100132.13
2022-12-06T15:13:31.345Z,100131.03
2022-12-06T15:16:06.290Z,100122.69
2022-12-06T15:18:37.968Z,100130.88
2022-12-06T15:21:11.276Z,100127.50
2022-12-06T15:23:40.956Z,100128.94
2022-12-06T15:26:13.131Z,100137.59
2022-12-06T15:28:41.278Z,100140.78
2022-12-06T15:31:17.001Z,100139.66
2022-12-06T15:33:45.462Z,100132.16
2022-12-06T15:36:16.964Z,100133.59
2022-12-06T15:38:44.870Z,100136.31
2022-12-06T15:41:18.210Z,100137.25
2022-12-06T15:43:46.252Z,100132.72
2022-12-06T15:46:19.284Z,100132.16
2022-12-06T15:48:47.109Z,100140.59
2022-12-06T15:51:20.322Z,100139.97
2022-12-06T15:53:49.816Z,100141.88
2022-12-06T15:56:21.004Z,100147.22
2022-12-06T15:58:49.248Z,100141.00
2022-12-06T16:01:18.555Z,100146.00
2022-12-06T16:03:47.094Z,100144.44
2022-12-06T16:06:16.085Z,100147.03
2022-12-06T16:08:44.155Z,100153.19
2022-12-06T16:11:13.450Z,100160.97
2022-12-06T16:13:42.603Z,100154.06
2022-12-06T16:16:11.170Z,100156.66
2022-12-06T16:18:38.882Z,100152.44
2022-12-06T16:21:06.926Z,100156.38
2022-12-06T16:26:43.809Z,100145.66
2022-12-06T16:29:15.031Z,100152.56
2022-12-06T16:31:42.680Z,100155.03
2022-12-06T16:34:10.350Z,100149.88
2022-12-06T16:36:57.248Z,100151.69
2022-12-06T16:39:25.108Z,100146.59
2022-12-06T16:41:52.712Z,100157.53
2022-12-06T16:44:21.746Z,100155.78
2022-12-06T16:46:49.631Z,100156.72
2022-12-06T16:49:45.277Z,100157.53
2022-12-06T16:52:07.532Z,100154.00
2022-12-06T16:54:35.740Z,100153.13
2022-12-06T16:57:03.247Z,100155.63
2022-12-06T16:59:32.269Z,100154.81
2022-12-06T17:02:00.340Z,100157.06
2022-12-06T17:04:30.622Z,100157.06
2022-12-06T17:06:58.196Z,100154.50
2022-12-06T17:09:25.797Z,100156.03
2022-12-06T17:12:06.753Z,100162.00
2022-12-06T17:14:37.844Z,100151.78
2022-12-06T17:17:05.674Z,100149.91
2022-12-06T17:19:34.028Z,100151.34
2022-12-06T17:22:02.277Z,100151.50
2022-12-06T17:24:30.008Z,100141.47
2022-12-06T17:26:58.796Z,100145.03
2022-12-06T17:29:26.921Z,100147.66
2022-12-06T17:31:56.681Z,100153.72
2022-12-06T17:34:25.621Z,100148.59
2022-12-06T17:36:53.705Z,100149.56
2022-12-06T17:39:22.111Z,100146.06
2022-12-06T17:42:07.393Z,100143.50
2022-12-06T17:44:35.135Z,100141.06
2022-12-06T17:47:04.307Z,100144.31
2022-12-06T17:49:31.925Z,100148.59
2022-12-06T17:51:59.633Z,100148.59
2022-12-06T17:54:27.195Z,100145.13
2022-12-06T17:56:56.067Z,100143.38
2022-12-06T17:59:25.922Z,100144.31
2022-12-06T18:02:14.620Z,100147.78
2022-12-06T18:04:44.308Z,100151.31
2022-12-06T18:07:12.645Z,100153.22
2022-12-06T18:09:40.578Z,100151.44
2022-12-06T18:12:09.221Z,100147.31
2022-12-06T18:14:36.810Z,100150.50
2022-12-06T18:17:04.759Z,100152.25
2022-12-06T18:19:32.471Z,100155.78
2022-12-06T18:22:01.446Z,100154.16
2022-12-06T18:24:35.228Z,100155.84
2022-12-06T18:27:03.412Z,100153.06
2022-12-06T18:29:31.177Z,100153.88
2022-12-06T18:31:58.779Z,100157.22
2022-12-06T18:34:26.476Z,100157.28
2022-12-06T18:36:53.982Z,100155.31
2022-12-06T18:39:25.185Z,100160.41
2022-12-06T18:41:54.156Z,100156.38
2022-12-06T18:44:22.122Z,100161.03
2022-12-06T18:46:49.683Z,100157.09
2022-12-06T18:49:17.331Z,100152.66
2022-12-06T18:51:45.010Z,100151.84
2022-12-06T18:54:14.540Z,100156.88
2022-12-06T18:56:43.587Z,100154.34
2022-12-06T18:59:12.628Z,100157.03
2022-12-06T19:01:41.502Z,100154.34
2022-12-06T19:04:11.431Z,100160.22
2022-12-06T19:06:39.138Z,100164.53
2022-12-06T19:09:08.103Z,100164.38
2022-12-06T19:11:37.467Z,100166.13
2022-12-06T19:14:07.178Z,100158.69
2022-12-06T19:16:37.061Z,100162.94
2022-12-06T19:19:12.803Z,100166.41
2022-12-06T19:21:43.918Z,100156.09
2022-12-06T19:24:13.047Z,100163.75
2022-12-06T19:26:41.757Z,100167.88
2022-12-06T19:29:10.720Z,100173.13
2022-12-06T19:31:38.388Z,100167.09
2022-12-06T19:34:06.034Z,100172.25
2022-12-06T19:36:34.033Z,100175.69
2022-12-06T19:39:03.064Z,100172.19
2022-12-06T19:41:31.388Z,100172.09
2022-12-06T19:44:16.927Z,100161.03
2022-12-06T19:46:47.476Z,100172.19
2022-12-06T19:49:16.840Z,100173.63
2022-12-06T19:51:46.695Z,100171.09
2022-12-06T19:54:16.379Z,100168.44
2022-12-06T19:56:44.010Z,100175.22
2022-12-06T19:59:12.329Z,100171.09
2022-12-06T20:01:41.322Z,100167.72
2022-12-06T20:04:14.328Z,100172.03
2022-12-06T20:06:41.894Z,100173.72
2022-12-06T20:09:10.907Z,100172.84
2022-12-06T20:11:57.495Z,100169.31
2022-12-06T20:14:25.581Z,100163.34
2022-12-06T20:16:53.649Z,100167.44
2022-12-06T20:19:22.716Z,100166.41
2022-12-06T20:21:50.357Z,100158.50
2022-12-06T20:24:20.076Z,100164.41
2022-12-06T20:26:50.157Z,100155.00
2022-12-06T20:29:18.814Z,100158.19
2022-12-06T20:31:46.912Z,100154.53
2022-12-06T20:34:15.690Z,100164.56
2022-12-06T20:36:44.959Z,100163.69
2022-12-06T20:39:19.121Z,100164.56
2022-12-06T20:41:46.805Z,100162.69
2022-12-06T20:44:14.330Z,100162.69
2022-12-06T20:46:42.093Z,100166.97
2022-12-06T20:49:09.996Z,100160.91
2022-12-06T20:51:37.922Z,100162.69
2022-12-06T20:54:08.114Z,100166.19
2022-12-06T20:56:37.765Z,100155.91
2022-12-06T20:59:06.808Z,100163.44
2022-12-06T21:01:38.731Z,100164.78
2022-12-06T21:04:06.962Z,100162.72
2022-12-06T21:06:34.677Z,100159.94
2022-12-06T21:09:02.587Z,100160.13
2022-12-06T21:11:31.996Z,100155.16
2022-12-06T21:13:59.614Z,100152.59
2022-12-06T21:16:29.419Z,100155.16
2022-12-06T21:18:58.094Z,100158.66
2022-12-06T21:21:27.970Z,100161.34
2022-12-06T21:23:55.993Z,100157.88
2022-12-06T21:26:23.604Z,100161.53
2022-12-06T21:28:54.500Z,100170.06
2022-12-06T21:31:26.358Z,100165.81
2022-12-06T21:33:54.049Z,100166.00
2022-12-06T21:36:21.593Z,100163.56
2022-12-06T21:38:49.195Z,100168.03
2022-12-06T21:41:17.072Z,100161.03
2022-12-06T21:43:44.848Z,100167.72
2022-12-06T21:46:16.771Z,100165.81
2022-12-06T21:48:45.188Z,100171.78
2022-12-06T21:51:14.271Z,100174.41
2022-12-06T21:53:42.325Z,100171.88
2022-12-06T21:56:12.644Z,100179.50
2022-12-06T21:58:40.171Z,100181.13
2022-12-06T22:01:09.067Z,100177.31
2022-12-06T22:03:38.164Z,100178.22
2022-12-06T22:06:06.540Z,100179.09
2022-12-06T22:08:34.451Z,100175.66
2022-12-06T22:11:02.332Z,100178.03
2022-12-06T22:13:29.875Z,100182.34
2022-12-06T22:16:01.981Z,100179.84
2022-12-06T22:18:29.933Z,100179.84
2022-12-06T22:21:00.531Z,100181.63
2022-12-06T22:23:28.751Z,100185.06
2022-12-06T22:25:56.360Z,100185.94
2022-12-06T22:28:24.369Z,100183.38
2022-12-06T22:30:51.995Z,100185.06
2022-12-06T22:33:20.183Z,100175.09
2022-12-06T22:35:47.702Z,100184.31
2022-12-06T22:38:16.627Z,100175.72
2022-12-06T22:40:44.201Z,100175.72
2022-12-06T22:43:11.741Z,100170.75
2022-12-06T22:45:39.311Z,100167.44
2022-12-06T22:48:07.371Z,100162.47
2022-12-06T22:50:34.992Z,100177.63
2022-12-06T22:53:02.621Z,100169.00
2022-12-06T22:55:32.401Z,100170.75
2022-12-06T22:57:59.956Z,100166.47
2022-12-06T23:00:42.695Z,100170.63
2022-12-06T23:03:10.266Z,100172.06
2022-12-06T23:05:37.789Z,100168.78
2022-12-06T23:08:05.852Z,100173.97
2022-12-06T23:10:34.883Z,100170.44
2022-12-06T23:13:02.505Z,100174.63
2022-12-06T23:15:30.087Z,100178.84
2022-12-06T23:17:57.617Z,100182.25
2022-12-06T23:20:25.202Z,100177.22
2022-12-06T23:22:52.755Z,100171.91
2022-12-06T23:25:20.279Z,100176.19
2022-12-06T23:27:49.177Z,100174.53
2022-12-06T23:30:17.160Z,100174.53
2022-12-06T23:32:44.815Z,100168.72
2022-12-06T23:35:12.392Z,100172.06
2022-12-06T23:37:41.288Z,100163.59
2022-12-06T23:40:09.868Z,100172.19
2022-12-06T23:42:37.440Z,100178.91
2022-12-06T23:45:07.612Z,100161.00
2022-12-06T23:47:35.180Z,100160.88
2022-12-06T23:50:03.051Z,100163.31
2022-12-06T23:52:30.758Z,100162.44
2022-12-06T23:54:59.529Z,100156.28
2022-12-06T23:57:27.063Z,100168.00
2022-12-06T23:59:54.637Z,100160.22
